Time;durP1;ratioP1;P1;durP2;ratioP2;P2;SDS_P1;SDS_P2;PMS_P1;PMS_P2;Temp;Humidity;BMP_temperature;BMP_pressure;BME280_temperature;BME280_humidity;BME280_pressure;Samples;Min_cycle;Max_cycle;Signal;HPM_P1;HPM_P2
2022/07/16 00:02:49;;;;;;;13.07;1.73;;;;;;;22.82;59.24;99818.13;7319806;19;128833;-42
2022/07/16 00:05:14;;;;;;;16.67;2.00;;;;;;;22.83;59.20;99835.50;7317556;19;130117;-38
2022/07/16 00:07:39;;;;;;;19.17;2.05;;;;;;;22.83;58.97;99830.25;7318909;19;129312;-38
2022/07/16 00:10:05;;;;;;;20.05;2.13;;;;;;;22.83;59.15;99831.09;7319639;19;129085;-38
2022/07/16 00:12:31;;;;;;;15.97;1.73;;;;;;;22.82;59.03;99828.63;7319293;19;128901;-37
2022/07/16 00:14:56;;;;;;;16.10;1.73;;;;;;;22.84;59.10;99831.94;7317256;19;129338;-39
2022/07/16 00:17:22;;;;;;;10.77;1.53;;;;;;;22.82;59.24;99818.97;7318292;19;128940;-38
2022/07/16 00:19:47;;;;;;;16.23;1.92;;;;;;;22.82;58.70;99818.13;7319331;19;129007;-37
2022/07/16 00:22:12;;;;;;;15.33;1.83;;;;;;;22.81;59.28;99816.44;7319440;19;129163;-39
2022/07/16 00:24:38;;;;;;;16.93;1.90;;;;;;;22.82;58.75;99823.38;7317263;19;129422;-39
2022/07/16 00:27:05;;;;;;;24.92;2.40;;;;;;;22.75;59.25;99803.94;7318603;19;130165;-39
2022/07/16 00:29:30;;;;;;;17.13;2.03;;;;;;;22.82;59.29;99812.88;7318742;19;129157;-38
2022/07/16 00:31:56;;;;;;;18.58;2.00;;;;;;;22.82;58.71;99812.88;7319213;19;129346;-38
2022/07/16 00:34:22;;;;;;;8.75;1.52;;;;;;;22.82;59.50;99808.47;7318254;19;129440;-40
2022/07/16 00:36:48;;;;;;;22.52;2.42;;;;;;;22.82;59.20;99805.03;7318956;19;130252;-42
2022/07/16 00:39:14;;;;;;;17.40;1.90;;;;;;;22.83;59.03;99804.03;7318556;19;128825;-42
2022/07/16 00:41:41;;;;;;;17.08;1.85;;;;;;;22.77;59.27;99791.50;7318393;19;129466;-38
2022/07/16 00:44:14;;;;;;;30.90;3.38;;;;;;;22.83;59.63;99804.03;7317303;19;129492;-41
2022/07/16 00:46:41;;;;;;;13.60;1.75;;;;;;;22.84;58.88;99800.47;7317815;19;130419;-41
2022/07/16 00:49:07;;;;;;;15.73;1.98;;;;;;;22.77;58.84;99787.09;7319229;19;129239;-42
2022/07/16 00:51:34;;;;;;;14.13;1.83;;;;;;;22.81;58.92;99798.09;7318240;19;128980;-40
2022/07/16 00:53:59;;;;;;;32.28;2.90;;;;;;;22.82;59.14;99797.16;7317539;19;131091;-42
2022/07/16 00:56:26;;;;;;;18.17;1.80;;;;;;;22.82;59.11;99787.50;7315509;19;129161;-43
2022/07/16 00:58:52;;;;;;;16.92;1.80;;;;;;;22.84;59.25;99795.22;7319022;19;129056;-42
2022/07/16 01:01:19;;;;;;;19.63;2.25;;;;;;;22.82;59.40;99794.53;7317867;19;129509;-39
2022/07/16 01:03:44;;;;;;;17.87;1.97;;;;;;;22.83;58.80;99798.78;7317329;19;129036;-38
2022/07/16 01:06:11;;;;;;;17.27;1.90;;;;;;;22.83;59.21;99793.56;7316965;19;129328;-42
2022/07/16 01:08:41;;;;;;;19.77;2.00;;;;;;;22.75;59.26;99775.09;7318232;19;129253;-42
2022/07/16 01:11:08;;;;;;;16.17;1.83;;;;;;;22.81;59.56;99790.25;7317805;19;128989;-42
2022/07/16 01:13:35;;;;;;;11.65;1.52;;;;;;;22.80;60.08;99792.06;7317673;19;131045;-41
2022/07/16 01:16:01;;;;;;;;;;;;;;;22.84;61.83;99789.97;7314830;19;129136;-40
2022/07/16 01:18:26;;;;;;;19.42;2.33;;;;;;;22.84;58.69;99787.38;7317414;19;129058;-41
2022/07/16 01:20:52;;;;;;;18.15;1.77;;;;;;;22.83;58.79;99788.31;7318194;19;129187;-40
2022/07/16 01:23:19;;;;;;;9.18;1.20;;;;;;;22.84;59.54;99782.13;7317035;19;129025;-40
2022/07/16 01:25:44;;;;;;;18.58;2.08;;;;;;;22.82;58.83;99770.94;7314621;19;130342;-41
2022/07/16 01:28:10;;;;;;;18.80;2.10;;;;;;;22.82;59.55;99776.19;7317291;19;128988;-39
2022/07/16 01:30:35;;;;;;;17.07;1.87;;;;;;;22.83;58.68;99772.59;7317592;19;129499;-38
2022/07/16 01:33:18;;;;;;;6.63;1.27;;;;;;;22.82;61.26;99777.03;7317203;19;129614;-39
2022/07/16 01:35:43;;;;;;;7.03;1.30;;;;;;;22.76;59.42;99766.25;7313711;19;130417;-42
2022/07/16 01:38:10;;;;;;;19.65;2.00;;;;;;;22.83;59.52;99777.81;7314291;19;129065;-41
2022/07/16 01:40:36;;;;;;;17.02;1.88;;;;;;;22.83;58.93;99773.41;7317277;19;129023;-39
2022/07/16 01:43:01;;;;;;;19.90;2.15;;;;;;;22.78;59.21;99769.56;7316389;19;130076;-41
2022/07/16 01:45:27;;;;;;;16.58;1.75;;;;;;;22.82;58.81;99773.56;7313934;19;129880;-41
2022/07/16 01:47:52;;;;;;;14.10;1.77;;;;;;;22.82;59.40;99776.19;7316770;19;128833;-39
2022/07/16 01:50:17;;;;;;;17.70;1.95;;;;;;;22.81;59.30;99770.09;7316898;19;128706;-42
2022/07/16 01:52:43;;;;;;;16.98;1.77;;;;;;;22.82;59.57;99771.78;7317193;19;129593;-41
2022/07/16 01:55:08;;;;;;;17.42;1.70;;;;;;;22.84;59.35;99771.63;7313454;19;129100;-38
2022/07/16 01:57:34;;;;;;;18.80;2.20;;;;;;;22.82;59.55;99773.56;7316519;19;129403;-42
2022/07/16 01:59:59;;;;;;;14.67;1.40;;;;;;;22.82;59.64;99770.94;7316849;19;129376;-39
2022/07/16 02:02:24;;;;;;;6.30;1.20;;;;;;;22.82;59.49;99765.69;7316087;19;130045;-40
2022/07/16 02:04:50;;;;;;;16.80;1.83;;;;;;;22.82;59.53;99765.69;7314144;19;130301;-42
2022/07/16 02:07:15;;;;;;;17.35;1.90;;;;;;;22.72;58.75;99750.00;7316447;19;129019;-42
2022/07/16 02:09:40;;;;;;;24.88;2.58;;;;;;;22.81;59.17;99761.41;7316031;19;128931;-39
2022/07/16 02:12:06;;;;;;;16.77;1.95;;;;;;;22.82;59.15;99761.28;7315390;19;130153;-42
2022/07/16 02:14:31;;;;;;;18.30;2.15;;;;;;;22.83;59.01;99759.47;7314258;19;129203;-42
2022/07/16 02:16:57;;;;;;;21.63;2.00;;;;;;;22.83;59.13;99760.31;7313116;19;129091;-39
2022/07/16 02:19:22;;;;;;;14.73;1.65;;;;;;;22.84;59.36;99758.53;7315576;19;128776;-39
2022/07/16 02:21:47;;;;;;;17.02;1.92;;;;;;;22.82;59.11;99760.47;7315123;19;130855;-39
2022/07/16 02:24:13;;;;;;;32.05;3.40;;;;;;;22.82;59.44;99749.97;7313917;19;129109;-39
2022/07/16 02:26:38;;;;;;;22.92;2.53;;;;;;;22.82;59.36;99750.81;7314293;19;128878;-38
2022/07/16 02:29:04;;;;;;;15.25;1.80;;;;;;;22.82;59.02;99744.72;7315624;19;129388;-39
2022/07/16 02:31:29;;;;;;;16.83;1.92;;;;;;;22.82;59.44;99755.22;7315493;19;129024;-39
2022/07/16 02:33:54;;;;;;;17.17;1.80;;;;;;;22.82;58.83;99749.97;7314779;19;129530;-38
2022/07/16 02:36:20;;;;;;;16.48;1.85;;;;;;;22.81;59.06;99745.69;7313741;19;129029;-38
2022/07/16 02:38:45;;;;;;;15.57;1.67;;;;;;;22.82;58.78;99745.56;7315395;19;128863;-38
2022/07/16 02:41:10;;;;;;;20.08;2.20;;;;;;;22.82;59.17;99752.59;7314708;19;129026;-38
2022/07/16 02:43:36;;;;;;;18.08;1.83;;;;;;;22.82;59.31;99749.97;7314851;19;129632;-38
2022/07/16 02:46:01;;;;;;;20.23;1.92;;;;;;;22.81;58.81;99743.88;7312030;19;129663;-39
2022/07/16 02:48:27;;;;;;;2.13;0.73;;;;;;;22.81;59.06;99743.06;7315004;19;129417;-39
2022/07/16 02:50:52;;;;;;;18.30;1.90;;;;;;;22.80;59.00;99741.41;7314189;19;129041;-39
2022/07/16 02:53:17;;;;;;;16.97;1.87;;;;;;;22.79;58.83;99739.78;7314787;19;129212;-39
2022/07/16 02:55:43;;;;;;;8.93;1.27;;;;;;;22.81;59.30;99748.31;7311256;19;129868;-38
2022/07/16 02:58:08;;;;;;;19.75;2.03;;;;;;;22.82;58.77;99749.97;7314601;19;129091;-39
2022/07/16 03:00:34;;;;;;;16.60;1.73;;;;;;;22.82;59.16;99744.72;7314758;19;128942;-38
2022/07/16 03:02:59;;;;;;;15.88;1.65;;;;;;;22.82;58.97;99734.25;7313894;19;129620;-38
2022/07/16 03:05:25;;;;;;;18.75;1.95;;;;;;;22.82;59.14;99729.00;7312018;19;129119;-38
2022/07/16 03:07:51;;;;;;;15.90;1.70;;;;;;;22.83;59.03;99730.63;7314132;19;129383;-38
2022/07/16 03:10:17;;;;;;;23.58;2.25;;;;;;;22.81;58.91;99728.16;7314373;19;129828;-38
2022/07/16 03:12:43;;;;;;;18.20;1.98;;;;;;;22.81;59.43;99722.09;7314098;19;129708;-39
2022/07/16 03:15:11;;;;;;;16.77;1.80;;;;;;;22.81;59.12;99722.09;7311836;19;129896;-38
2022/07/16 03:17:37;;;;;;;17.27;2.08;;;;;;;22.80;59.02;99730.94;7313398;19;128952;-40
2022/07/16 03:20:03;;;;;;;16.08;1.67;;;;;;;22.78;59.02;99714.50;7313873;19;129188;-39
2022/07/16 03:22:29;;;;;;;18.63;1.77;;;;;;;22.81;58.91;99727.31;7313903;19;130552;-39
2022/07/16 03:24:54;;;;;;;20.80;2.28;;;;;;;22.82;59.69;99734.25;7312295;19;129291;-39
2022/07/16 03:27:20;;;;;;;15.77;1.75;;;;;;;22.81;59.06;99732.56;7313899;19;128892;-39
2022/07/16 03:29:45;;;;;;;18.70;1.95;;;;;;;22.82;59.42;99739.47;7313778;19;128999;-38
2022/07/16 03:32:10;;;;;;;16.13;1.67;;;;;;;22.80;59.59;99737.00;7314023;19;130755;-38
2022/07/16 03:34:36;;;;;;;15.50;1.63;;;;;;;22.80;59.72;99736.19;7312276;19;129111;-39
2022/07/16 03:37:02;;;;;;;15.27;1.80;;;;;;;22.81;59.15;99749.13;7310259;19;128887;-38
2022/07/16 03:39:27;;;;;;;18.40;1.93;;;;;;;22.81;59.40;99745.69;7313063;19;129090;-40
2022/07/16 03:41:53;;;;;;;16.70;1.67;;;;;;;22.81;59.49;99741.28;7314194;19;129824;-38
2022/07/16 03:44:18;;;;;;;27.87;3.00;;;;;;;22.82;59.29;99734.25;7311698;19;128787;-41
2022/07/16 03:46:44;;;;;;;18.87;1.83;;;;;;;22.82;59.06;99739.47;7313134;19;129097;-39
2022/07/16 03:49:09;;;;;;;17.40;2.00;;;;;;;22.81;59.40;99732.56;7313134;19;129568;-38
2022/07/16 03:51:35;;;;;;;16.03;2.00;;;;;;;22.81;59.04;99732.56;7311635;19;130709;-38
2022/07/16 03:54:02;;;;;;;16.93;1.70;;;;;;;22.74;59.76;99724.47;7312175;19;129002;-38
2022/07/16 03:56:27;;;;;;;19.02;1.88;;;;;;;22.81;58.84;99737.81;7310472;19;129293;-40
2022/07/16 03:58:53;;;;;;;22.10;2.60;;;;;;;22.82;58.98;99739.47;7312364;19;129673;-39
2022/07/16 04:01:19;;;;;;;18.13;1.83;;;;;;;22.81;59.37;99737.81;7312808;19;129246;-40
2022/07/16 04:03:44;;;;;;;7.97;1.13;;;;;;;22.80;59.34;99739.63;7319532;19;128824;-41
2022/07/16 04:06:09;;;;;;;17.42;1.75;;;;;;;22.81;59.70;99732.56;7319216;19;128896;-38
2022/07/16 04:08:35;;;;;;;14.85;1.58;;;;;;;22.81;59.17;99729.94;7318543;19;129260;-41
2022/07/16 04:11:01;;;;;;;18.63;1.90;;;;;;;22.80;58.92;99728.31;7319419;19;130390;-41
2022/07/16 04:13:26;;;;;;;16.93;1.83;;;;;;;22.81;59.25;99732.56;7319407;19;129059;-41
2022/07/16 04:15:52;;;;;;;20.45;2.13;;;;;;;22.80;59.35;99731.78;7315744;19;130195;-39
2022/07/16 04:18:17;;;;;;;13.63;1.50;;;;;;;22.81;59.24;99727.31;7319970;19;130052;-42
2022/07/16 04:20:43;;;;;;;16.50;1.80;;;;;;;22.81;59.13;99729.94;7319798;19;131138;-40
2022/07/16 04:23:08;;;;;;;17.25;1.83;;;;;;;22.82;59.45;99729.00;7318320;19;128840;-38
2022/07/16 04:25:34;;;;;;;17.45;1.88;;;;;;;22.81;59.48;99729.94;7316495;19;128616;-40
2022/07/16 04:27:59;;;;;;;17.35;1.85;;;;;;;22.80;59.35;99726.53;7319602;19;130354;-42
2022/07/16 04:30:25;;;;;;;13.35;1.75;;;;;;;22.80;59.17;99715.22;7317722;19;129162;-39
2022/07/16 04:32:50;;;;;;;19.65;1.73;;;;;;;22.81;59.47;99722.09;7318846;19;129098;-40
2022/07/16 04:35:16;;;;;;;11.48;1.25;;;;;;;22.80;59.16;99721.28;7316401;19;129284;-39
2022/07/16 04:37:43;;;;;;;15.97;1.80;;;;;;;22.77;59.62;99710.25;7318844;19;130339;-38
2022/07/16 04:40:10;;;;;;;18.55;1.95;;;;;;;22.79;59.17;99717.00;7317616;19;129332;-38
2022/07/16 04:42:37;;;;;;;18.67;1.98;;;;;;;22.80;59.13;99720.44;7319126;19;129465;-38
2022/07/16 04:45:02;;;;;;;8.18;1.00;;;;;;;22.71;59.08;99702.97;7316697;19;128827;-39
2022/07/16 04:47:28;;;;;;;16.48;1.65;;;;;;;22.79;58.83;99709.13;7318243;19;129227;-39
2022/07/16 04:49:53;;;;;;;17.95;1.70;;;;;;;22.78;59.63;99706.66;7318208;19;129656;-38
2022/07/16 04:52:18;;;;;;;15.88;1.67;;;;;;;22.80;59.47;99702.09;7318175;19;128937;-38
2022/07/16 04:54:44;;;;;;;16.05;1.60;;;;;;;22.79;59.41;99692.59;7316568;19;129659;-38
2022/07/16 04:57:09;;;;;;;12.10;1.55;;;;;;;22.79;59.47;99692.59;7314212;19;129461;-40
2022/07/16 04:59:34;;;;;;;19.75;1.88;;;;;;;22.79;58.93;99693.41;7317908;19;130276;-38
2022/07/16 05:04:44;;;;;;;19.23;1.88;;;;;;;22.79;59.54;99695.22;7316496;19;128808;-39
2022/07/16 05:07:09;;;;;;;17.38;1.67;;;;;;;22.75;59.55;99685.97;7318386;19;129604;-38
2022/07/16 05:09:34;;;;;;;15.83;1.60;;;;;;;22.78;59.69;99689.13;7317530;19;129180;-38
2022/07/16 05:12:00;;;;;;;19.30;1.80;;;;;;;22.80;59.18;99689.00;7317390;19;128902;-40
2022/07/16 05:14:25;;;;;;;20.50;2.17;;;;;;;22.79;59.43;99693.41;7316659;19;129009;-37
2022/07/16 05:16:51;;;;;;;14.23;1.52;;;;;;;22.78;59.81;99691.75;7315236;19;130148;-37
2022/07/16 05:19:16;;;;;;;17.77;1.80;;;;;;;22.78;59.51;99690.94;7317069;19;129565;-38
2022/07/16 05:21:41;;;;;;;17.13;1.75;;;;;;;22.78;59.12;99680.44;7317713;19;129686;-38
2022/07/16 05:24:07;;;;;;;14.38;1.75;;;;;;;22.70;59.12;99677.72;7317017;19;128851;-38
2022/07/16 05:26:32;;;;;;;22.30;2.07;;;;;;;22.77;59.27;99684.03;7316830;19;130103;-40
2022/07/16 05:28:57;;;;;;;15.45;1.70;;;;;;;22.72;59.31;99676.63;7316879;19;129167;-41
2022/07/16 05:31:23;;;;;;;15.57;1.60;;;;;;;22.79;59.27;99682.91;7317764;19;129516;-40
2022/07/16 05:33:48;;;;;;;21.23;2.28;;;;;;;22.77;59.61;99689.28;7316389;19;129050;-39
2022/07/16 05:36:13;;;;;;;17.92;1.80;;;;;;;22.78;59.36;99683.06;7315075;19;129121;-42
2022/07/16 05:38:39;;;;;;;16.75;1.73;;;;;;;22.77;59.52;99684.88;7317377;19;129718;-40
2022/07/16 05:41:04;;;;;;;16.58;1.60;;;;;;;22.75;58.84;99681.56;7317044;19;128813;-39
2022/07/16 05:43:30;;;;;;;17.90;1.83;;;;;;;22.77;59.11;99684.03;7316216;19;128994;-40
2022/07/16 05:45:55;;;;;;;18.63;1.85;;;;;;;22.77;59.35;99678.81;7313891;19;129413;-42
2022/07/16 05:48:21;;;;;;;15.38;1.90;;;;;;;22.77;60.02;99676.19;7316382;19;129139;-38
2022/07/16 05:50:46;;;;;;;19.40;2.05;;;;;;;22.77;59.62;99676.19;7316435;19;129372;-42
2022/07/16 05:53:11;;;;;;;18.00;1.60;;;;;;;22.76;59.21;99677.97;7316511;19;128602;-40
2022/07/16 05:55:37;;;;;;;18.10;1.65;;;;;;;22.76;59.36;99674.50;7313151;19;129422;-40
2022/07/16 05:58:02;;;;;;;16.65;1.73;;;;;;;22.78;59.78;99675.19;7315582;19;129118;-42
2022/07/16 06:00:28;;;;;;;17.93;1.77;;;;;;;22.77;59.30;99684.88;7316747;19;128991;-41
2022/07/16 06:02:53;;;;;;;8.90;1.20;;;;;;;22.77;59.34;99684.03;7316029;19;128924;-40
2022/07/16 06:05:18;;;;;;;23.48;2.33;;;;;;;22.77;59.95;99684.03;7311951;19;131217;-42
2022/07/16 06:07:44;;;;;;;21.33;2.00;;;;;;;22.78;59.07;99681.28;7317727;19;130869;-42
2022/07/16 06:10:09;;;;;;;10.50;1.50;;;;;;;22.77;59.60;99676.19;7316169;19;128821;-39
2022/07/16 06:12:35;;;;;;;17.45;1.92;;;;;;;22.77;59.80;99678.81;7315960;19;128885;-42
2022/07/16 06:15:00;;;;;;;20.40;2.00;;;;;;;22.76;59.09;99682.38;7313567;19;129622;-42
2022/07/16 06:17:26;;;;;;;17.10;1.65;;;;;;;22.76;59.16;99672.72;7313047;19;129041;-40
2022/07/16 06:19:51;;;;;;;18.65;1.80;;;;;;;22.75;59.72;99675.50;7314524;19;129390;-42
2022/07/16 06:22:16;;;;;;;14.05;1.70;;;;;;;22.76;59.68;99677.13;7316265;19;128818;-42
2022/07/16 06:24:42;;;;;;;36.40;3.67;;;;;;;22.76;59.14;99677.13;7312195;19;130124;-40
2022/07/16 06:27:07;;;;;;;17.27;1.83;;;;;;;22.77;59.82;99681.41;7314196;19;129588;-42
2022/07/16 06:29:32;;;;;;;15.57;1.67;;;;;;;22.68;59.75;99669.16;7315725;19;129240;-42
2022/07/16 06:31:58;;;;;;;11.45;1.25;;;;;;;22.76;59.19;99683.22;7315498;19;128762;-40
2022/07/16 06:34:23;;;;;;;39.17;3.58;;;;;;;22.77;59.29;99686.66;7312423;19;130623;-42
2022/07/16 06:36:49;;;;;;;16.93;1.80;;;;;;;22.77;59.19;99678.81;7313291;19;130431;-41
2022/07/16 06:39:14;;;;;;;10.10;1.23;;;;;;;22.76;59.52;99677.13;7315219;19;128848;-39
2022/07/16 06:41:39;;;;;;;16.65;1.50;;;;;;;22.77;59.58;99686.66;7315276;19;128832;-41
2022/07/16 06:44:06;;;;;;;15.90;1.67;;;;;;;22.76;59.85;99698.94;7314101;19;130124;-41
2022/07/16 06:46:32;;;;;;;19.38;1.95;;;;;;;22.76;59.11;99690.25;7313594;19;130888;-42
2022/07/16 06:48:57;;;;;;;18.98;1.98;;;;;;;22.77;59.50;99689.28;7314710;19;128801;-42
2022/07/16 06:51:23;;;;;;;19.52;1.90;;;;;;;22.77;59.84;99702.41;7315326;19;128886;-38
2022/07/16 06:53:48;;;;;;;22.23;1.95;;;;;;;22.77;59.07;99699.78;7314515;19;129394;-38
2022/07/16 06:56:14;;;;;;;8.32;1.20;;;;;;;22.76;59.77;99703.34;7312744;19;130409;-38
2022/07/16 06:58:39;;;;;;;20.40;2.20;;;;;;;22.76;59.24;99709.41;7313738;19;128937;-39
2022/07/16 07:01:05;;;;;;;19.40;1.80;;;;;;;22.74;58.89;99695.63;7314672;19;129131;-39
2022/07/16 07:03:30;;;;;;;17.52;1.77;;;;;;;22.69;59.91;99694.44;7314422;19;129643;-39
2022/07/16 07:05:56;;;;;;;16.98;1.77;;;;;;;22.76;59.28;99709.41;7311476;19;129101;-38
2022/07/16 07:08:21;;;;;;;16.70;1.75;;;;;;;22.76;59.11;99708.59;7313991;19;128943;-38
2022/07/16 07:10:46;;;;;;;27.40;2.58;;;;;;;22.75;59.69;99706.94;7313933;19;129001;-38
2022/07/16 07:13:12;;;;;;;15.02;1.55;;;;;;;22.76;59.97;99708.59;7313250;19;129782;-38
2022/07/16 07:15:37;;;;;;;20.17;2.10;;;;;;;22.76;59.52;99716.44;7311015;19;129087;-38
2022/07/16 07:18:02;;;;;;;19.77;1.90;;;;;;;22.76;59.45;99713.81;7313804;19;128824;-39
2022/07/16 07:20:29;;;;;;;17.15;1.80;;;;;;;22.75;59.46;99704.31;7314008;19;129825;-38
2022/07/16 07:22:55;;;;;;;;;;;;;;;22.68;61.80;99680.50;7314275;19;129375;-38
2022/07/16 07:25:20;;;;;;;9.10;1.13;;;;;;;22.74;59.15;99700.88;7311127;19;129215;-39
2022/07/16 07:27:46;;;;;;;22.20;2.10;;;;;;;22.74;59.88;99698.25;7313934;19;129031;-38
2022/07/16 07:30:12;;;;;;;19.98;1.95;;;;;;;22.74;59.24;99694.81;7313792;19;129361;-40
2022/07/16 07:32:37;;;;;;;10.73;1.43;;;;;;;22.75;59.67;99691.22;7313268;19;129506;-40
2022/07/16 07:35:04;;;;;;;14.25;1.50;;;;;;;22.75;59.63;99699.09;7311475;19;130373;-38
2022/07/16 07:37:29;;;;;;;14.05;1.67;;;;;;;22.76;59.63;99700.72;7315776;19;128950;-37
2022/07/16 07:39:55;;;;;;;16.35;1.58;;;;;;;22.76;59.38;99698.09;7321341;19;129673;-38
2022/07/16 07:42:20;;;;;;;12.25;1.38;;;;;;;22.76;59.39;99700.72;7320353;19;129024;-39
2022/07/16 07:44:45;;;;;;;39.00;3.63;;;;;;;22.75;59.61;99699.09;7319254;19;129730;-39
2022/07/16 07:47:11;;;;;;;4.63;0.80;;;;;;;22.74;59.88;99690.38;7319946;19;129228;-42
2022/07/16 07:49:36;;;;;;;20.77;2.13;;;;;;;22.74;59.56;99695.63;7320040;19;129368;-41
2022/07/16 07:52:02;;;;;;;17.60;1.73;;;;;;;22.74;59.40;99694.81;7320284;19;129682;-42
2022/07/16 07:54:27;;;;;;;15.80;1.60;;;;;;;22.73;59.61;99685.28;7318821;19;131247;-42
2022/07/16 07:56:53;;;;;;;19.63;1.95;;;;;;;22.71;60.08;99693.31;7318169;19;130867;-40
2022/07/16 07:59:18;;;;;;;16.10;1.80;;;;;;;22.73;59.95;99693.16;7319445;19;128829;-40
2022/07/16 08:01:44;;;;;;;18.35;1.67;;;;;;;22.72;59.41;99686.28;7319343;19;129067;-42
2022/07/16 08:04:09;;;;;;;17.80;1.77;;;;;;;22.74;59.86;99694.81;7318075;19;130806;-41
2022/07/16 08:06:35;;;;;;;16.23;1.63;;;;;;;22.74;59.47;99694.81;7319516;19;128890;-40
2022/07/16 08:09:01;;;;;;;16.55;1.52;;;;;;;22.73;59.91;99683.50;7319587;19;128767;-39
2022/07/16 08:11:26;;;;;;;16.40;1.55;;;;;;;22.73;60.13;99687.91;7319684;19;129578;-38
2022/07/16 08:13:52;;;;;;;7.65;1.23;;;;;;;22.73;59.83;99693.16;7318584;19;129311;-38
2022/07/16 08:16:17;;;;;;;15.52;1.50;;;;;;;22.74;59.91;99676.47;7318789;19;129117;-38
2022/07/16 08:18:42;;;;;;;19.23;1.98;;;;;;;22.74;59.78;99681.72;7318912;19;128766;-40
2022/07/16 08:21:08;;;;;;;16.58;1.58;;;;;;;22.75;59.12;99685.97;7317467;19;129670;-38
2022/07/16 08:26:17;;;;;;;16.58;1.48;;;;;;;22.72;59.79;99675.78;7318716;19;128919;-38
2022/07/16 08:28:43;;;;;;;16.08;1.77;;;;;;;22.73;59.88;99680.88;7317704;19;129629;-37
2022/07/16 08:31:08;;;;;;;17.63;1.80;;;;;;;22.73;59.53;99687.91;7318827;19;130189;-38
2022/07/16 08:33:33;;;;;;;16.42;1.63;;;;;;;22.65;59.90;99672.09;7318609;19;129586;-39
2022/07/16 08:36:01;;;;;;;15.55;1.48;;;;;;;22.72;59.66;99676.63;7315010;19;129315;-38
2022/07/16 08:38:26;;;;;;;18.08;1.83;;;;;;;22.72;59.12;99675.78;7319122;19;129212;-38
2022/07/16 08:40:55;;;;;;;11.48;1.23;;;;;;;22.72;59.60;99674.00;7318851;19;130164;-38
2022/07/16 08:43:21;;;;;;;14.93;1.35;;;;;;;22.73;59.30;99682.66;7317157;19;129354;-38
2022/07/16 08:45:47;;;;;;;18.27;1.90;;;;;;;22.73;59.25;99680.03;7315797;19;129096;-37
2022/07/16 08:48:13;;;;;;;15.50;1.47;;;;;;;22.74;59.86;99679.09;7317586;19;129136;-38
2022/07/16 08:50:41;;;;;;;15.33;1.40;;;;;;;22.72;59.15;99681.88;7317624;19;129903;-38
2022/07/16 08:53:08;;;;;;;22.45;2.20;;;;;;;22.72;59.58;99697.59;7317915;19;129175;-38
2022/07/16 08:55:36;;;;;;;15.73;1.55;;;;;;;22.63;59.10;99687.13;7316022;19;129233;-39
2022/07/16 08:58:01;;;;;;;16.00;1.65;;;;;;;22.71;59.08;99708.22;7315468;19;128762;-39
2022/07/16 09:00:27;;;;;;;17.45;1.73;;;;;;;22.63;59.52;99692.38;7318173;19;129165;-38
2022/07/16 09:02:53;;;;;;;22.17;2.20;;;;;;;22.73;59.24;99717.56;7317638;19;129288;-38
2022/07/16 09:05:18;;;;;;;17.33;1.67;;;;;;;22.72;59.22;99718.56;7315710;19;129370;-39
2022/07/16 09:07:45;;;;;;;17.42;1.77;;;;;;;22.71;59.47;99710.84;7318057;19;129573;-38
2022/07/16 09:10:10;;;;;;;2.55;0.50;;;;;;;22.72;60.08;99722.97;7317658;19;130146;-39
2022/07/16 09:12:40;;;;;;;14.35;1.42;;;;;;;22.70;61.01;99719.66;7315909;19;131126;-38
2022/07/16 09:15:27;;;;;;;26.00;2.50;;;;;;;22.72;61.47;99717.72;7315628;19;128722;-38
2022/07/16 09:18:19;;;;;;;20.70;1.85;;;;;;;22.72;62.03;99707.25;7315032;19;129482;-38
2022/07/16 09:20:54;;;;;;;17.13;1.60;;;;;;;22.73;61.02;99714.13;7317823;19;130636;-39
2022/07/16 09:23:37;;;;;;;16.70;1.83;;;;;;;22.73;61.88;99714.13;7317184;19;129155;-42
2022/07/16 09:26:05;;;;;;;16.60;1.52;;;;;;;22.71;59.68;99710.84;7314356;19;129267;-42
2022/07/16 09:28:44;;;;;;;17.30;1.55;;;;;;;22.71;61.07;99706.41;7318285;19;129078;-42
2022/07/16 09:31:11;;;;;;;18.88;1.85;;;;;;;22.63;59.72;99692.38;7317374;19;130174;-41
2022/07/16 09:33:36;;;;;;;18.13;1.70;;;;;;;22.71;59.94;99711.66;7317326;19;129331;-42
2022/07/16 09:36:11;;;;;;;16.85;1.55;;;;;;;22.72;61.08;99705.44;7314508;19;130241;-41
2022/07/16 09:38:52;;;;;;;14.30;1.38;;;;;;;22.70;61.67;99711.78;7316549;19;129409;-38
2022/07/16 09:41:19;;;;;;;16.75;1.55;;;;;;;22.61;59.26;99704.81;7317486;19;129408;-37
2022/07/16 09:43:45;;;;;;;15.95;1.58;;;;;;;22.71;59.82;99726.56;7316671;19;130580;-42
2022/07/16 09:46:22;;;;;;;16.40;1.65;;;;;;;22.71;61.36;99713.47;7316191;19;128794;-42
2022/07/16 09:48:48;;;;;;;15.20;1.50;;;;;;;22.71;59.82;99726.56;7316753;19;128766;-41
2022/07/16 09:51:20;;;;;;;17.10;1.55;;;;;;;22.70;61.16;99730.13;7316501;19;129492;-40
2022/07/16 09:53:47;;;;;;;18.02;1.58;;;;;;;22.70;59.72;99736.22;7316079;19;129102;-39
2022/07/16 09:56:18;;;;;;;19.67;1.83;;;;;;;22.71;60.22;99742.28;7315540;19;129049;-41
2022/07/16 09:58:47;;;;;;;17.42;1.75;;;;;;;22.71;59.99;99752.78;7313662;19;129089;-39
2022/07/16 10:01:14;;;;;;;16.83;1.48;;;;;;;22.62;59.72;99748.38;7317123;19;129705;-41
2022/07/16 10:03:40;;;;;;;20.45;1.90;;;;;;;22.71;59.43;99763.25;7316516;19;130401;-39
2022/07/16 10:06:06;;;;;;;2.20;0.57;;;;;;;22.70;59.52;99769.44;7315818;19;128842;-41
2022/07/16 10:08:32;;;;;;;17.45;1.60;;;;;;;22.68;59.29;99768.75;7316290;19;129392;-39
2022/07/16 10:10:57;;;;;;;11.13;1.30;;;;;;;22.65;60.00;99771.66;7316352;19;130071;-42
2022/07/16 10:13:26;;;;;;;17.48;1.83;;;;;;;22.71;59.94;99789.47;7315770;19;129725;-40
2022/07/16 10:15:51;;;;;;;15.98;1.50;;;;;;;22.71;60.09;99789.47;7312797;19;128803;-38
2022/07/16 10:18:31;;;;;;;15.10;1.38;;;;;;;22.73;61.47;99798.00;7312950;19;128879;-39
2022/07/16 10:21:02;;;;;;;11.85;1.40;;;;;;;22.71;61.01;99799.97;7316081;19;130134;-38
2022/07/16 10:23:29;;;;;;;16.35;1.50;;;;;;;22.72;59.68;99801.59;7315589;19;129234;-38
2022/07/16 10:25:58;;;;;;;;;;;;;;;22.74;61.80;99805.72;7313202;19;129908;-39
2022/07/16 10:28:43;;;;;;;5.22;0.70;;;;;;;22.72;61.31;99797.19;7315755;19;129243;-38
2022/07/16 10:31:33;;;;;;;11.93;1.30;;;;;;;22.72;62.31;99796.34;7315669;19;129143;-38
2022/07/16 10:34:14;;;;;;;9.38;1.08;;;;;;;22.59;62.17;99775.69;7314551;19;130532;-38
2022/07/16 10:36:45;;;;;;;17.52;1.65;;;;;;;22.68;60.78;99800.22;7314375;19;129268;-38
2022/07/16 10:39:15;;;;;;;21.45;1.88;;;;;;;22.68;59.71;99790.56;7315228;19;129021;-40
2022/07/16 10:41:55;;;;;;;16.40;1.60;;;;;;;22.68;61.27;99802.84;7315478;19;130370;-38
2022/07/16 10:44:23;;;;;;;14.32;1.33;;;;;;;22.69;59.35;99797.44;7314367;19;130383;-40
2022/07/16 10:47:01;;;;;;;15.05;1.40;;;;;;;22.69;61.86;99809.75;7314581;19;129133;-38
2022/07/16 10:49:29;;;;;;;16.40;1.48;;;;;;;22.69;59.32;99804.50;7315549;19;128854;-38
2022/07/16 10:52:05;;;;;;;15.65;1.40;;;;;;;22.69;60.13;99804.50;7314957;19;129379;-38
2022/07/16 10:54:37;;;;;;;15.63;1.43;;;;;;;22.69;59.48;99796.66;7313849;19;129417;-38
2022/07/16 10:57:03;;;;;;;19.60;1.77;;;;;;;22.70;59.65;99803.53;7312311;19;128911;-38
2022/07/16 10:59:31;;;;;;;17.77;1.58;;;;;;;22.68;60.39;99794.97;7314636;19;128583;-37
2022/07/16 11:02:00;;;;;;;17.42;1.58;;;;;;;22.59;60.36;99780.91;7314841;19;131105;-39
2022/07/16 11:04:40;;;;;;;18.58;1.70;;;;;;;22.69;61.55;99796.66;7313167;19;131011;-40
2022/07/16 11:07:09;;;;;;;17.10;1.40;;;;;;;22.63;59.72;99786.72;7313834;19;129357;-39
2022/07/16 11:09:38;;;;;;;19.00;1.75;;;;;;;22.69;59.41;99788.78;7314031;19;128991;-38
2022/07/16 11:12:11;;;;;;;17.35;1.55;;;;;;;22.62;61.50;99785.06;7320979;19;130948;-38
2022/07/16 11:14:38;;;;;;;16.58;1.70;;;;;;;22.69;59.50;99796.66;7319828;19;130169;-38
2022/07/16 11:17:04;;;;;;;23.08;2.15;;;;;;;22.69;59.40;99796.66;7319940;19;128666;-39
2022/07/16 11:19:33;;;;;;;17.92;1.60;;;;;;;22.67;59.59;99782.84;7321451;19;128900;-38
2022/07/16 11:22:00;;;;;;;24.55;2.17;;;;;;;22.59;59.71;99769.63;7320512;19;131459;-38
2022/07/16 11:24:27;;;;;;;18.65;1.80;;;;;;;22.60;59.69;99771.28;7320900;19;129169;-39